Warners, New York
Current Conditions -  °F | °C
As of 12:54 AM on Saturday 29 Nov 2014 (Local Time) from KSYR Reporting Station
Broken Clouds Broken Clouds  
Wind Chill: 13°   Ceiling: 12000
Heat Index: 24°   Visibility: 10mi
Dew Point: 15°   Wind: 12mph
Humidity: 69%   Direction: 220°SW
Pressure: 30.22"   Gusts: NA
Location:  43.09°N, 76.33°W
Report Text: KSYR 290554Z 22010KT 10SM FEW055 BKN120 M04/M09 A3022 RMK AO2 SLP235 FEW V SCT 4/005 60000 T10441094 11033 21044 53000
Loading
Personal Weather Stations






























Interactive Weather Map New forecast layout! Learn more

10-Day Weather Forecast

Advertisements
Track Severe Weather on mobile